Time;durP1;ratioP1;P1;durP2;ratioP2;P2;SDS_P1;SDS_P2;PMS_P1;PMS_P2;Temp;Humidity;BMP_temperature;BMP_pressure;BME280_temperature;BME280_humidity;BME280_pressure;Samples;Min_cycle;Max_cycle;Signal;HPM_P1;HPM_P2
2024/01/26 00:02:13;;;;;;;10.43;8.02;;;11.60;82.40;;;;;;4991629;28;20382;-77
2024/01/26 00:04:39;;;;;;;9.40;7.32;;;11.60;82.40;;;;;;4993021;28;20109;-82
2024/01/26 00:07:05;;;;;;;9.70;7.65;;;11.60;82.40;;;;;;5009349;28;20219;-92
2024/01/26 00:09:32;;;;;;;9.38;7.20;;;11.70;82.40;;;;;;4994083;28;20018;-78
2024/01/26 00:11:58;;;;;;;9.80;7.35;;;11.70;82.40;;;;;;5003407;28;20026;-82
2024/01/26 00:14:23;;;;;;;9.63;7.72;;;11.70;82.40;;;;;;4989753;28;20031;-76
2024/01/26 00:16:49;;;;;;;9.60;7.65;;;11.70;82.40;;;;;;4991657;28;20019;-82
2024/01/26 00:19:15;;;;;;;9.93;7.88;;;11.60;82.30;;;;;;5022558;28;20041;-92
2024/01/26 00:21:41;;;;;;;9.02;7.30;;;11.70;82.40;;;;;;5005332;28;20507;-82
2024/01/26 00:24:06;;;;;;;10.23;7.90;;;11.70;82.40;;;;;;5010784;28;20497;-82
2024/01/26 00:26:32;;;;;;;10.30;8.15;;;11.70;82.40;;;;;;4989745;28;20378;-82
2024/01/26 00:28:58;;;;;;;9.40;7.70;;;11.70;82.40;;;;;;5006497;28;20490;-92
2024/01/26 00:31:24;;;;;;;10.70;8.23;;;11.70;82.40;;;;;;5006985;28;20045;-82
2024/01/26 00:33:49;;;;;;;9.50;7.45;;;11.70;82.40;;;;;;5009897;28;20025;-83
2024/01/26 00:36:15;;;;;;;9.25;7.32;;;11.70;82.30;;;;;;4990017;28;20447;-82
2024/01/26 00:38:41;;;;;;;9.68;7.45;;;11.70;82.30;;;;;;5006433;28;20022;-92
2024/01/26 00:41:07;;;;;;;9.57;7.43;;;11.70;82.30;;;;;;5005889;28;20030;-92
2024/01/26 00:43:33;;;;;;;9.07;7.18;;;11.70;82.30;;;;;;5012819;28;20036;-77
2024/01/26 00:45:59;;;;;;;9.77;7.90;;;11.80;82.40;;;;;;5005779;28;20030;-77
2024/01/26 00:48:25;;;;;;;9.15;7.38;;;11.80;82.40;;;;;;5020702;28;20457;-82
2024/01/26 00:50:52;;;;;;;9.48;7.97;;;11.80;82.40;;;;;;5002840;28;20080;-90
2024/01/26 00:53:17;;;;;;;9.45;8.05;;;11.80;82.40;;;;;;4991903;28;20121;-91
2024/01/26 00:55:43;;;;;;;9.57;7.68;;;11.80;82.40;;;;;;4995613;28;20117;-91
2024/01/26 00:58:09;;;;;;;11.07;8.40;;;11.80;82.30;;;;;;4990551;28;20029;-77
2024/01/26 01:00:36;;;;;;;10.18;7.75;;;11.80;82.30;;;;;;4992312;28;20560;-77
2024/01/26 01:03:02;;;;;;;9.68;7.90;;;11.80;82.40;;;;;;4996368;28;20026;-78
2024/01/26 01:05:28;;;;;;;9.48;7.75;;;11.80;82.40;;;;;;5012869;28;20033;-83
2024/01/26 01:07:53;;;;;;;9.02;7.55;;;11.80;82.40;;;;;;4996309;28;20041;-91
2024/01/26 01:10:19;;;;;;;9.27;7.88;;;11.80;82.30;;;;;;4995904;28;20025;-91
2024/01/26 01:12:45;;;;;;;9.68;7.68;;;11.80;82.30;;;;;;5010968;28;20022;-91
2024/01/26 01:15:11;;;;;;;10.23;7.88;;;11.80;82.30;;;;;;5010002;28;20100;-90
2024/01/26 01:17:43;;;;;;;9.80;7.78;;;11.80;82.30;;;;;;4997321;28;20071;-91
2024/01/26 01:20:10;;;;;;;9.88;7.75;;;11.80;82.40;;;;;;5008175;28;20053;-90
2024/01/26 01:22:45;;;;;;;10.32;7.80;;;11.80;82.30;;;;;;4994584;28;20018;-77
2024/01/26 01:25:14;;;;;;;9.60;8.27;;;11.80;82.40;;;;;;4992991;28;20113;-77
2024/01/26 01:27:43;;;;;;;9.68;7.80;;;11.80;82.30;;;;;;4992746;28;20029;-77
2024/01/26 01:30:09;;;;;;;9.05;7.35;;;11.80;82.40;;;;;;4992375;28;20492;-91
2024/01/26 01:32:35;;;;;;;8.88;7.55;;;11.80;82.30;;;;;;5008055;28;20092;-91
2024/01/26 01:35:02;;;;;;;8.85;7.45;;;11.90;82.40;;;;;;5010478;28;20036;-82
2024/01/26 01:37:28;;;;;;;8.93;7.35;;;11.90;82.40;;;;;;5005039;28;20033;-82
2024/01/26 01:39:54;;;;;;;10.77;8.60;;;11.90;82.40;;;;;;4990019;28;20026;-83
2024/01/26 01:42:19;;;;;;;9.98;8.20;;;11.90;82.40;;;;;;5010109;28;20030;-91
2024/01/26 01:44:46;;;;;;;9.95;7.95;;;11.90;82.30;;;;;;5020345;28;20060;-82
2024/01/26 01:47:14;;;;;;;9.65;7.75;;;11.90;82.30;;;;;;5008726;28;20510;-91
2024/01/26 01:49:42;;;;;;;9.32;7.53;;;11.90;82.40;;;;;;5011574;28;20026;-90
2024/01/26 01:52:18;;;;;;;9.50;8.02;;;11.90;82.30;;;;;;4998415;28;20040;-89
2024/01/26 01:54:45;;;;;;;8.75;6.88;;;11.90;82.30;;;;;;5008925;28;21019;-91
2024/01/26 01:57:12;;;;;;;9.38;7.45;;;11.90;82.30;;;;;;4991322;28;20117;-83
2024/01/26 01:59:39;;;;;;;9.68;8.00;;;11.90;82.30;;;;;;4989418;28;20426;-77
2024/01/26 02:02:05;;;;;;;9.65;7.75;;;11.90;82.30;;;;;;5005873;28;20105;-82
2024/01/26 02:04:31;;;;;;;8.88;7.30;;;11.90;82.30;;;;;;5008140;28;20032;-77
2024/01/26 02:07:03;;;;;;;8.48;7.15;;;11.90;82.30;;;;;;5018380;28;20033;-81
2024/01/26 02:09:29;;;;;;;8.43;7.18;;;11.90;82.30;;;;;;5004798;28;20033;-77
2024/01/26 02:11:55;;;;;;;8.95;7.60;;;11.90;82.30;;;;;;5003214;28;20036;-83
2024/01/26 02:14:22;;;;;;;8.50;7.07;;;11.90;82.30;;;;;;5002982;28;20022;-91
2024/01/26 02:16:58;;;;;;;9.20;7.88;;;12.00;82.40;;;;;;4991539;28;20110;-91
2024/01/26 02:19:25;;;;;;;9.35;6.93;;;12.00;82.40;;;;;;4990296;28;20019;-83
2024/01/26 02:21:51;;;;;;;8.85;7.32;;;12.00;82.40;;;;;;5000275;28;20026;-77
2024/01/26 02:24:17;;;;;;;8.70;6.93;;;12.00;82.40;;;;;;5004406;28;20018;-82
2024/01/26 02:26:43;;;;;;;8.70;7.22;;;12.00;82.40;;;;;;4987682;28;20113;-82
2024/01/26 02:29:09;;;;;;;8.40;6.68;;;12.00;82.40;;;;;;4988925;28;20037;-82
2024/01/26 02:31:35;;;;;;;9.18;7.15;;;12.00;82.40;;;;;;5004720;28;20042;-82
2024/01/26 02:34:01;;;;;;;8.88;7.43;;;12.00;82.40;;;;;;4984136;28;20030;-77
2024/01/26 02:36:28;;;;;;;8.48;6.90;;;12.00;82.40;;;;;;5002976;28;20041;-82
2024/01/26 02:38:54;;;;;;;8.80;7.53;;;12.00;82.40;;;;;;5006778;28;20246;-83
2024/01/26 02:41:20;;;;;;;8.50;6.75;;;12.00;82.40;;;;;;5006063;28;20544;-82
2024/01/26 02:43:45;;;;;;;8.52;6.78;;;12.00;82.30;;;;;;5006474;28;20028;-77
2024/01/26 02:46:12;;;;;;;7.97;6.80;;;12.00;82.40;;;;;;5008540;28;20018;-91
2024/01/26 02:48:38;;;;;;;8.63;7.35;;;12.00;82.40;;;;;;4990070;28;20033;-77
2024/01/26 02:51:04;;;;;;;7.63;6.43;;;12.00;82.40;;;;;;4988822;28;20030;-77
2024/01/26 02:53:31;;;;;;;7.68;6.78;;;12.10;82.40;;;;;;4984470;28;20030;-82
2024/01/26 02:55:56;;;;;;;9.98;7.15;;;12.00;82.40;;;;;;5006768;28;20033;-83
2024/01/26 02:58:23;;;;;;;8.70;7.18;;;12.10;82.40;;;;;;5008416;28;20030;-77
2024/01/26 03:00:48;;;;;;;8.13;6.68;;;12.00;82.30;;;;;;5008687;28;20571;-83
2024/01/26 03:03:14;;;;;;;8.07;6.82;;;12.00;82.30;;;;;;5005059;28;20030;-90
2024/01/26 03:05:40;;;;;;;7.85;6.50;;;12.10;82.40;;;;;;4994557;28;20014;-82
2024/01/26 03:08:07;;;;;;;7.97;6.65;;;12.00;82.30;;;;;;5006064;28;20041;-91
2024/01/26 03:10:33;;;;;;;7.45;6.03;;;12.10;82.40;;;;;;5011080;28;20033;-82
2024/01/26 03:12:59;;;;;;;8.18;6.60;;;12.10;82.40;;;;;;5004972;28;20026;-77
2024/01/26 03:15:25;;;;;;;8.32;6.68;;;12.10;82.40;;;;;;4992561;28;20454;-77
2024/01/26 03:17:51;;;;;;;7.45;6.60;;;12.10;82.40;;;;;;4985143;28;20324;-76
2024/01/26 03:20:17;;;;;;;8.02;6.30;;;12.10;83.00;;;;;;4993962;28;20140;-82
2024/01/26 03:22:46;;;;;;;6.85;5.72;;;12.10;82.40;;;;;;5007174;28;20034;-92
2024/01/26 03:25:11;;;;;;;7.85;6.40;;;12.10;82.40;;;;;;4995006;28;20014;-83
2024/01/26 03:27:37;;;;;;;6.93;5.60;;;12.10;82.40;;;;;;5012176;28;20105;-77
2024/01/26 03:30:03;;;;;;;7.60;5.82;;;12.10;82.40;;;;;;4989236;28;20062;-83
2024/01/26 03:32:36;;;;;;;6.43;5.65;;;12.10;82.40;;;;;;4994235;28;20050;-77
2024/01/26 03:35:01;;;;;;;6.97;5.50;;;12.10;82.40;;;;;;5011682;28;20443;-82
2024/01/26 03:37:27;;;;;;;6.80;5.30;;;12.20;82.40;;;;;;4994935;28;20129;-82
2024/01/26 03:39:53;;;;;;;7.35;5.38;;;12.10;82.40;;;;;;5011255;28;20076;-82
2024/01/26 03:42:19;;;;;;;6.63;5.05;;;12.10;82.40;;;;;;5008895;28;20022;-77
2024/01/26 03:44:45;;;;;;;6.97;5.03;;;12.10;82.60;;;;;;5007110;28;20121;-78
2024/01/26 03:47:11;;;;;;;6.47;5.18;;;12.10;82.40;;;;;;5008392;28;20018;-77
2024/01/26 03:49:46;;;;;;;6.43;4.93;;;12.10;82.40;;;;;;4991887;28;20137;-82
2024/01/26 03:52:12;;;;;;;6.05;4.72;;;12.10;82.40;;;;;;4998081;28;20036;-91
2024/01/26 03:54:38;;;;;;;5.93;4.75;;;12.10;82.40;;;;;;5010094;28;20117;-77
2024/01/26 03:57:05;;;;;;;5.80;4.68;;;12.10;82.40;;;;;;4996200;28;20084;-92
2024/01/26 03:59:31;;;;;;;5.60;4.57;;;12.20;82.40;;;;;;5012554;28;20367;-92
2024/01/26 04:01:57;;;;;;;5.78;4.70;;;12.20;82.50;;;;;;4989555;28;20037;-76
2024/01/26 04:04:23;;;;;;;6.30;4.97;;;12.20;82.50;;;;;;5009626;28;20117;-82
2024/01/26 04:06:49;;;;;;;6.13;4.85;;;12.20;82.40;;;;;;4994898;28;20389;-77
2024/01/26 04:09:15;;;;;;;5.95;4.78;;;12.20;82.40;;;;;;4991591;28;20034;-82
2024/01/26 04:11:40;;;;;;;6.38;4.55;;;12.20;83.00;;;;;;5011592;28;20112;-76
2024/01/26 04:14:06;;;;;;;5.32;4.32;;;12.20;82.40;;;;;;5013067;28;20511;-82
2024/01/26 04:16:32;;;;;;;5.53;4.32;;;12.20;82.40;;;;;;5012970;28;20486;-82
2024/01/26 04:18:57;;;;;;;5.05;4.03;;;12.20;82.40;;;;;;5011998;28;20026;-82
2024/01/26 04:21:23;;;;;;;5.22;3.95;;;12.20;82.40;;;;;;5016884;28;20030;-82
2024/01/26 04:23:49;;;;;;;5.03;3.83;;;12.20;82.40;;;;;;5010949;28;20522;-91
2024/01/26 04:26:15;;;;;;;5.03;3.90;;;12.20;82.40;;;;;;4989142;28;20477;-91
2024/01/26 04:28:41;;;;;;;4.63;3.53;;;12.20;82.40;;;;;;5012940;28;20030;-82
2024/01/26 04:31:07;;;;;;;4.97;3.97;;;12.20;82.40;;;;;;5011420;28;20478;-77
2024/01/26 04:33:33;;;;;;;5.40;3.85;;;12.20;82.40;;;;;;5010975;28;20679;-82
2024/01/26 04:35:59;;;;;;;4.32;3.72;;;12.20;82.40;;;;;;5009668;28;20014;-83
2024/01/26 04:38:25;;;;;;;6.40;3.55;;;12.30;82.50;;;;;;5026993;28;20038;-82
2024/01/26 04:40:51;;;;;;;4.85;3.97;;;12.30;82.50;;;;;;5000484;28;20022;-83
2024/01/26 04:43:18;;;;;;;4.85;3.38;;;12.20;82.40;;;;;;5012295;28;20032;-82
2024/01/26 04:45:44;;;;;;;4.68;3.67;;;12.30;82.50;;;;;;5007495;28;20029;-82
2024/01/26 04:48:13;;;;;;;4.70;3.40;;;12.30;82.50;;;;;;5011112;28;20034;-85
2024/01/26 04:50:39;;;;;;;4.90;3.75;;;12.30;82.50;;;;;;5008226;28;20022;-82
2024/01/26 04:53:05;;;;;;;4.53;3.67;;;12.30;82.50;;;;;;5010296;28;20033;-83
2024/01/26 04:55:31;;;;;;;5.10;4.05;;;12.30;82.50;;;;;;5009474;28;20025;-90
2024/01/26 04:57:57;;;;;;;4.28;3.40;;;12.30;82.50;;;;;;5003743;28;20030;-91
2024/01/26 05:00:23;;;;;;;5.07;3.50;;;12.30;82.40;;;;;;5009871;28;20450;-83
2024/01/26 05:02:49;;;;;;;4.32;3.30;;;12.30;82.40;;;;;;5018777;28;20026;-82
2024/01/26 05:05:16;;;;;;;4.15;3.10;;;12.30;82.50;;;;;;5006511;28;20032;-82
2024/01/26 05:07:41;;;;;;;3.90;3.20;;;12.30;83.10;;;;;;5010806;28;20493;-82
2024/01/26 05:10:08;;;;;;;4.35;3.20;;;12.30;82.40;;;;;;4993443;28;20091;-82
2024/01/26 05:12:34;;;;;;;3.50;2.65;;;12.30;82.40;;;;;;5010206;28;20220;-90
2024/01/26 05:15:00;;;;;;;3.70;2.85;;;12.30;82.40;;;;;;4999488;28;20100;-82
2024/01/26 05:17:25;;;;;;;4.13;3.08;;;12.30;82.50;;;;;;5004029;28;20026;-82
2024/01/26 05:19:51;;;;;;;3.75;2.92;;;12.30;82.40;;;;;;5016025;28;20034;-82
2024/01/26 05:22:18;;;;;;;3.80;2.92;;;12.30;82.50;;;;;;5025721;28;20033;-82
2024/01/26 05:24:45;;;;;;;3.47;2.88;;;12.30;82.40;;;;;;5008441;28;20071;-91
2024/01/26 05:27:11;;;;;;;4.15;3.00;;;12.30;82.40;;;;;;4993673;28;20137;-90
2024/01/26 05:29:37;;;;;;;4.35;3.53;;;12.30;82.50;;;;;;5007714;28;20437;-82
2024/01/26 05:32:04;;;;;;;4.15;3.20;;;12.40;82.50;;;;;;5007453;28;20048;-77
2024/01/26 05:34:32;;;;;;;3.58;2.78;;;12.30;82.40;;;;;;4992980;28;20505;-91
2024/01/26 05:36:58;;;;;;;4.22;3.10;;;12.30;82.50;;;;;;4995982;28;20022;-91
2024/01/26 05:39:26;;;;;;;4.00;2.92;;;12.40;82.50;;;;;;5006107;28;20033;-77
2024/01/26 05:41:54;;;;;;;4.03;2.83;;;12.40;82.50;;;;;;4990092;28;20057;-83
2024/01/26 05:44:22;;;;;;;3.90;2.92;;;12.40;82.50;;;;;;5003438;28;20810;-77
2024/01/26 05:46:48;;;;;;;3.78;2.85;;;12.40;82.50;;;;;;4988999;28;20049;-89
2024/01/26 05:49:15;;;;;;;4.25;3.20;;;12.40;82.50;;;;;;5005593;28;20132;-82
2024/01/26 05:51:41;;;;;;;4.05;3.05;;;12.40;82.50;;;;;;4999816;28;20104;-83
2024/01/26 05:54:06;;;;;;;4.28;2.88;;;12.40;82.50;;;;;;4994604;28;20490;-83
2024/01/26 05:56:32;;;;;;;4.43;3.22;;;12.40;82.50;;;;;;5010209;28;20489;-85
2024/01/26 05:58:58;;;;;;;3.22;2.67;;;12.40;82.50;;;;;;5007363;28;20032;-78
2024/01/26 06:01:24;;;;;;;3.45;3.03;;;12.40;82.50;;;;;;4986888;28;20026;-78
2024/01/26 06:03:50;;;;;;;3.42;2.83;;;12.40;82.50;;;;;;5007496;28;20022;-85
2024/01/26 06:06:16;;;;;;;4.03;3.08;;;12.40;82.50;;;;;;4996902;28;20502;-77
2024/01/26 06:08:42;;;;;;;3.72;2.75;;;12.40;82.50;;;;;;5010451;28;20038;-84
2024/01/26 06:11:09;;;;;;;3.95;3.00;;;12.40;82.50;;;;;;4991522;28;20492;-78
2024/01/26 06:13:35;;;;;;;3.40;2.88;;;12.50;82.60;;;;;;5006031;28;20427;-90
2024/01/26 06:16:01;;;;;;;3.65;2.97;;;12.50;82.50;;;;;;5004766;28;20072;-84
2024/01/26 06:18:26;;;;;;;4.28;3.20;;;12.50;82.50;;;;;;5005870;28;20034;-79
2024/01/26 06:20:52;;;;;;;4.32;3.10;;;12.40;82.50;;;;;;4990086;28;20026;-90
2024/01/26 06:23:18;;;;;;;4.32;3.45;;;12.50;82.60;;;;;;5009963;28;20030;-84
2024/01/26 06:25:44;;;;;;;4.90;3.40;;;12.50;82.60;;;;;;5001788;28;20085;-84
2024/01/26 06:28:09;;;;;;;3.63;3.03;;;12.50;82.60;;;;;;5010602;28;20040;-82
2024/01/26 06:30:35;;;;;;;4.03;3.30;;;12.50;82.50;;;;;;4991316;28;20501;-78
2024/01/26 06:33:02;;;;;;;4.13;3.13;;;12.50;82.50;;;;;;5014434;28;20054;-96
2024/01/26 06:35:28;;;;;;;3.88;3.17;;;12.50;82.60;;;;;;4995050;28;20038;-93
2024/01/26 06:37:53;;;;;;;4.30;3.22;;;12.50;82.50;;;;;;5008465;28;20029;-86
2024/01/26 06:40:19;;;;;;;4.07;3.17;;;12.50;82.50;;;;;;4991988;28;20397;-78
2024/01/26 06:42:45;;;;;;;4.55;3.50;;;12.50;82.50;;;;;;4990706;28;20026;-77
2024/01/26 06:45:12;;;;;;;4.15;3.42;;;12.50;82.50;;;;;;4991358;28;20433;-87
2024/01/26 06:47:39;;;;;;;4.75;3.67;;;12.50;82.60;;;;;;4991697;28;20034;-84
2024/01/26 06:50:05;;;;;;;4.72;3.63;;;12.50;82.50;;;;;;5007666;28;20402;-78
2024/01/26 06:52:32;;;;;;;5.25;3.58;;;12.50;82.50;;;;;;5001422;28;20130;-86
2024/01/26 06:54:57;;;;;;;4.43;3.47;;;12.50;82.50;;;;;;5002901;28;20220;-78
2024/01/26 06:57:23;;;;;;;4.38;3.35;;;12.50;82.50;;;;;;5005785;28;20130;-78
2024/01/26 06:59:49;;;;;;;4.47;3.33;;;12.50;82.60;;;;;;5007630;28;20022;-81
2024/01/26 07:02:15;;;;;;;4.22;3.30;;;12.50;82.50;;;;;;5008756;28;20108;-86
2024/01/26 07:04:40;;;;;;;4.63;3.42;;;12.50;82.50;;;;;;5007611;28;20030;-87
2024/01/26 07:07:06;;;;;;;4.22;3.30;;;12.50;82.50;;;;;;5010072;28;20061;-78
2024/01/26 07:09:32;;;;;;;4.45;3.53;;;12.50;82.50;;;;;;4993086;28;20050;-84
2024/01/26 07:11:58;;;;;;;4.22;3.33;;;12.50;82.50;;;;;;5002535;28;20682;-85
2024/01/26 07:14:24;;;;;;;4.65;3.20;;;12.60;82.60;;;;;;4991279;28;20030;-86
2024/01/26 07:16:50;;;;;;;4.45;3.58;;;12.50;82.50;;;;;;4998267;28;20026;-78
2024/01/26 07:19:16;;;;;;;5.00;3.65;;;12.60;82.60;;;;;;4989082;28;20037;-89
2024/01/26 07:21:42;;;;;;;4.43;3.47;;;12.60;82.50;;;;;;4993951;28;20035;-81
2024/01/26 07:24:08;;;;;;;4.57;3.13;;;12.60;82.50;;;;;;5002159;28;20519;-89
2024/01/26 07:26:34;;;;;;;4.68;3.50;;;12.60;82.50;;;;;;5007600;28;20027;-81
2024/01/26 07:29:00;;;;;;;4.40;3.28;;;12.60;82.50;;;;;;4999603;28;20022;-83
2024/01/26 07:31:26;;;;;;;3.50;3.05;;;12.60;82.50;;;;;;4996894;28;20088;-84
2024/01/26 07:33:52;;;;;;;4.57;3.17;;;12.60;82.50;;;;;;5015175;28;20092;-82
2024/01/26 07:36:18;;;;;;;4.20;3.28;;;12.60;82.50;;;;;;4988120;28;20130;-76
2024/01/26 07:38:44;;;;;;;3.95;3.35;;;12.60;82.50;;;;;;5009550;28;20023;-90
2024/01/26 07:41:09;;;;;;;4.05;3.20;;;12.60;82.50;;;;;;4994275;28;20486;-84
2024/01/26 07:43:35;;;;;;;3.88;2.95;;;12.60;82.50;;;;;;5002354;28;20445;-85
2024/01/26 07:46:01;;;;;;;3.83;3.03;;;12.60;82.50;;;;;;5000517;28;20017;-84
2024/01/26 07:48:27;;;;;;;3.78;2.80;;;12.60;82.50;;;;;;4985928;28;20042;-81
2024/01/26 07:50:52;;;;;;;4.32;3.08;;;12.60;82.50;;;;;;5004793;28;20125;-84
2024/01/26 07:53:18;;;;;;;3.47;2.88;;;12.60;82.50;;;;;;5004708;28;20030;-84
2024/01/26 07:55:44;;;;;;;4.13;3.08;;;12.60;82.50;;;;;;4990211;28;20022;-89
2024/01/26 07:58:10;;;;;;;3.50;2.67;;;12.60;82.50;;;;;;5005871;28;20070;-83
2024/01/26 08:00:36;;;;;;;3.15;2.70;;;12.60;82.50;;;;;;4989567;28;20037;-84
2024/01/26 08:03:03;;;;;;;4.45;3.00;;;12.60;82.50;;;;;;5008461;28;20030;-81
2024/01/26 08:05:29;;;;;;;4.00;2.97;;;12.60;82.50;;;;;;5007792;28;20044;-78
2024/01/26 08:07:55;;;;;;;3.78;2.88;;;12.60;82.40;;;;;;4990829;28;20026;-77
2024/01/26 08:10:20;;;;;;;4.22;3.20;;;12.70;82.50;;;;;;5011576;28;20022;-77
2024/01/26 08:12:46;;;;;;;3.53;2.65;;;12.70;82.50;;;;;;4993775;28;20033;-80
2024/01/26 08:15:13;;;;;;;4.32;3.28;;;12.60;82.40;;;;;;5007730;28;20026;-84
2024/01/26 08:17:38;;;;;;;3.22;2.75;;;12.60;82.40;;;;;;4994519;28;20089;-86
2024/01/26 08:20:05;;;;;;;3.47;2.95;;;12.70;82.40;;;;;;5010619;28;20478;-83
2024/01/26 08:22:31;;;;;;;3.67;2.90;;;12.70;82.40;;;;;;4996051;28;20153;-89
2024/01/26 08:25:00;;;;;;;3.55;2.80;;;12.70;82.50;;;;;;5024249;28;20113;-83
2024/01/26 08:27:27;;;;;;;3.78;2.80;;;12.70;82.40;;;;;;4995870;28;20076;-82
2024/01/26 08:29:52;;;;;;;2.75;2.38;;;12.70;82.40;;;;;;5012892;28;20026;-85
2024/01/26 08:32:18;;;;;;;3.78;3.10;;;12.70;82.40;;;;;;5006956;28;20037;-77
2024/01/26 08:34:44;;;;;;;3.10;2.72;;;12.70;82.40;;;;;;5014558;28;20064;-84
2024/01/26 08:37:11;;;;;;;3.90;3.25;;;12.70;82.40;;;;;;4995369;28;20478;-89
2024/01/26 08:39:37;;;;;;;3.63;2.80;;;12.70;82.40;;;;;;5006955;28;20026;-83
2024/01/26 08:42:03;;;;;;;4.22;3.35;;;12.70;82.40;;;;;;5011414;28;20568;-82
2024/01/26 08:44:32;;;;;;;4.40;3.15;;;12.70;82.40;;;;;;4992536;28;20030;-83
2024/01/26 08:46:58;;;;;;;4.55;3.40;;;12.70;82.40;;;;;;5012383;28;20022;-83
2024/01/26 08:49:24;;;;;;;4.50;3.60;;;12.70;82.40;;;;;;4993767;28;20030;-84
2024/01/26 08:51:51;;;;;;;4.30;3.50;;;12.80;82.40;;;;;;4993452;28;20113;-78
2024/01/26 08:54:17;;;;;;;3.85;3.03;;;12.70;82.30;;;;;;4993364;28;20026;-83
2024/01/26 08:56:43;;;;;;;3.95;3.13;;;12.80;82.40;;;;;;4993144;28;20044;-90
2024/01/26 08:59:09;;;;;;;4.05;3.30;;;12.80;82.40;;;;;;4990385;28;20037;-77
2024/01/26 09:01:36;;;;;;;4.05;3.20;;;12.80;82.40;;;;;;5010907;28;20037;-82
2024/01/26 09:04:05;;;;;;;3.65;3.13;;;12.80;82.40;;;;;;4995251;28;20025;-85
2024/01/26 09:06:32;;;;;;;4.57;3.42;;;12.80;82.40;;;;;;4991587;28;20045;-78
2024/01/26 09:08:58;;;;;;;4.38;3.33;;;12.80;82.40;;;;;;5006300;28;20073;-85
2024/01/26 09:11:24;;;;;;;4.45;3.30;;;12.80;82.30;;;;;;4995073;28;20512;-95
2024/01/26 09:13:50;;;;;;;3.97;3.20;;;12.80;82.30;;;;;;5009346;28;20478;-84
2024/01/26 09:16:15;;;;;;;4.20;3.58;;;12.80;82.30;;;;;;4995519;28;20026;-84
2024/01/26 09:18:41;;;;;;;4.13;3.45;;;12.90;82.40;;;;;;4994338;28;20045;-77
2024/01/26 09:21:12;;;;;;;4.25;3.33;;;12.80;82.30;;;;;;5002978;28;20083;-92
2024/01/26 09:23:39;;;;;;;3.97;3.25;;;12.90;82.40;;;;;;4987986;28;20511;-82
2024/01/26 09:26:04;;;;;;;4.10;3.38;;;12.90;82.40;;;;;;4994168;28;20022;-78
2024/01/26 09:28:30;;;;;;;4.32;3.33;;;12.90;82.40;;;;;;4992460;28;20029;-92
2024/01/26 09:30:56;;;;;;;3.83;3.10;;;12.90;82.40;;;;;;4993250;28;20034;-90
2024/01/26 09:33:22;;;;;;;3.28;2.80;;;12.90;82.70;;;;;;4994723;28;20046;-94
2024/01/26 09:35:48;;;;;;;3.35;2.80;;;12.90;82.30;;;;;;5009089;28;20029;-94
2024/01/26 09:38:14;;;;;;;3.50;2.83;;;12.90;82.30;;;;;;5009541;28;20006;-77
2024/01/26 09:40:42;;;;;;;3.53;2.47;;;12.90;82.30;;;;;;5006233;28;20367;-93
2024/01/26 09:43:08;;;;;;;3.40;2.60;;;12.90;82.30;;;;;;4993393;28;20060;-78
2024/01/26 09:45:34;;;;;;;3.25;2.50;;;12.90;82.30;;;;;;4991382;28;20018;-85
2024/01/26 09:48:03;;;;;;;2.58;2.30;;;12.90;82.30;;;;;;5011394;28;20045;-92
2024/01/26 09:50:29;;;;;;;3.53;2.50;;;13.00;83.00;;;;;;5009007;28;20493;-93
2024/01/26 09:52:55;;;;;;;2.38;2.17;;;12.90;82.30;;;;;;5021072;28;20487;-95
2024/01/26 09:55:22;;;;;;;3.58;2.28;;;13.00;82.40;;;;;;5010909;28;20120;-77
2024/01/26 09:57:47;;;;;;;3.03;2.17;;;13.00;82.40;;;;;;5000213;28;20547;-94
2024/01/26 10:00:14;;;;;;;3.13;2.00;;;13.00;82.40;;;;;;5001977;28;20412;-84
2024/01/26 10:02:43;;;;;;;3.08;2.35;;;13.00;82.40;;;;;;4989847;28;20036;-94
2024/01/26 10:05:15;;;;;;;2.40;1.90;;;13.00;82.40;;;;;;5006435;28;20030;-83
2024/01/26 10:07:41;;;;;;;3.05;1.88;;;13.00;82.40;;;;;;5021577;28;20034;-93
2024/01/26 10:10:07;;;;;;;2.42;1.60;;;13.00;82.30;;;;;;5007950;28;20038;-93
2024/01/26 10:12:35;;;;;;;2.70;1.33;;;13.00;82.30;;;;;;5011281;28;20026;-82
2024/01/26 10:15:07;;;;;;;2.45;1.55;;;13.10;83.00;;;;;;4993577;28;20061;-92
2024/01/26 10:17:33;;;;;;;2.17;1.20;;;13.00;82.30;;;;;;4993545;28;20041;-93
2024/01/26 10:20:25;;;;;;;1.48;1.10;;;13.00;82.30;;;;;;4993622;28;20026;-77
2024/01/26 10:22:52;;;;;;;1.25;1.10;;;13.00;82.30;;;;;;4980871;28;20033;-77
2024/01/26 10:25:18;;;;;;;2.15;1.20;;;13.00;82.20;;;;;;4991543;28;20040;-77
2024/01/26 10:27:44;;;;;;;1.27;1.10;;;13.10;82.30;;;;;;4992165;28;20034;-91
2024/01/26 10:30:11;;;;;;;1.17;1.08;;;13.10;82.30;;;;;;5024102;28;20030;-94
2024/01/26 10:32:38;;;;;;;2.33;1.25;;;13.00;82.30;;;;;;4989784;28;20546;-82
2024/01/26 10:35:05;;;;;;;1.33;1.23;;;13.00;82.30;;;;;;5009220;28;20026;-77
2024/01/26 10:37:34;;;;;;;1.42;1.08;;;13.00;82.30;;;;;;5006113;28;20042;-85
2024/01/26 10:40:01;;;;;;;1.95;1.00;;;13.00;82.30;;;;;;5007183;28;20033;-85
2024/01/26 10:42:32;;;;;;;1.92;1.00;;;13.00;82.30;;;;;;4990995;28;20026;-85
2024/01/26 10:45:02;;;;;;;1.77;1.10;;;13.00;82.30;;;;;;5009595;28;20022;-84
2024/01/26 10:47:28;;;;;;;1.25;1.00;;;13.00;82.30;;;;;;5009540;28;20756;-87
2024/01/26 10:49:57;;;;;;;1.50;1.10;;;13.00;82.30;;;;;;4994699;28;20101;-92
2024/01/26 10:52:23;;;;;;;1.15;1.02;;;13.00;82.30;;;;;;4994420;28;20105;-77
2024/01/26 10:54:51;;;;;;;1.25;1.00;;;13.00;82.30;;;;;;5006792;28;20080;-77
2024/01/26 10:57:19;;;;;;;1.92;1.20;;;13.00;82.30;;;;;;4992053;28;20022;-84
2024/01/26 10:59:46;;;;;;;1.55;1.20;;;13.00;82.40;;;;;;4991901;28;20022;-83
2024/01/26 11:02:18;;;;;;;1.83;1.10;;;12.90;82.30;;;;;;5009626;28;20030;-84
2024/01/26 11:04:44;;;;;;;4.25;1.27;;;13.00;82.40;;;;;;4992994;28;20031;-90
2024/01/26 11:07:16;;;;;;;1.95;1.10;;;12.90;82.30;;;;;;5005257;28;20369;-78
2024/01/26 11:09:46;;;;;;;3.53;1.45;;;12.90;82.30;;;;;;5006990;28;20057;-91
2024/01/26 11:12:25;;;;;;;2.78;1.10;;;12.90;82.30;;;;;;5006451;28;20055;-83
2024/01/26 11:15:08;;;;;;;2.65;1.10;;;12.90;82.30;;;;;;4992527;28;20022;-82
2024/01/26 11:17:51;;;;;;;1.45;0.90;;;12.90;82.40;;;;;;4993725;28;20084;-95
2024/01/26 11:20:25;;;;;;;3.08;1.08;;;12.90;82.30;;;;;;5013673;28;20402;-84
2024/01/26 11:23:09;;;;;;;4.28;1.20;;;12.90;82.30;;;;;;5007208;28;20426;-86
2024/01/26 11:25:37;;;;;;;2.08;1.08;;;12.80;82.30;;;;;;4987144;28;20144;-86
2024/01/26 11:28:07;;;;;;;1.98;1.00;;;12.80;82.30;;;;;;4995011;28;20033;-90
2024/01/26 11:30:37;;;;;;;2.25;1.38;;;12.80;82.30;;;;;;5008485;28;20037;-90
2024/01/26 11:33:14;;;;;;;2.03;1.10;;;12.80;82.30;;;;;;5009880;28;20544;-79
2024/01/26 11:35:42;;;;;;;3.35;1.58;;;12.80;82.30;;;;;;4989618;28;20023;-78
2024/01/26 11:38:09;;;;;;;3.85;1.20;;;12.80;82.30;;;;;;4992219;28;20022;-92
2024/01/26 11:40:35;;;;;;;4.45;1.30;;;12.80;82.20;;;;;;5005779;28;20496;-87
2024/01/26 11:43:01;;;;;;;1.67;1.02;;;12.80;82.30;;;;;;4994004;28;20401;-83
2024/01/26 11:45:37;;;;;;;2.33;1.00;;;12.80;82.30;;;;;;5002057;28;20408;-79
2024/01/26 11:48:07;;;;;;;2.58;1.20;;;12.80;82.30;;;;;;4993891;28;20043;-95
2024/01/26 11:50:32;;;;;;;2.53;1.30;;;12.70;82.30;;;;;;5008852;28;20053;-79
2024/01/26 11:52:59;;;;;;;2.35;1.33;;;12.70;82.30;;;;;;5013541;28;20029;-90
2024/01/26 11:55:29;;;;;;;1.95;1.08;;;12.70;82.30;;;;;;5011102;28;20427;-84
2024/01/26 11:57:56;;;;;;;2.83;1.65;;;12.70;82.30;;;;;;5021954;28;20026;-83
2024/01/26 12:00:22;;;;;;;3.22;1.33;;;12.70;82.30;;;;;;5010029;28;20032;-78
2024/01/26 12:02:48;;;;;;;1.42;1.05;;;12.70;82.30;;;;;;5012911;28;20026;-85
2024/01/26 12:05:17;;;;;;;2.75;1.23;;;12.70;82.30;;;;;;5007330;28;20024;-95
2024/01/26 12:07:43;;;;;;;4.90;1.33;;;12.70;82.30;;;;;;4999166;28;20080;-78
2024/01/26 12:10:13;;;;;;;3.72;1.40;;;12.70;82.30;;;;;;5006467;28;20445;-77
2024/01/26 12:12:43;;;;;;;3.15;1.48;;;12.70;82.40;;;;;;4995578;28;20517;-85
2024/01/26 12:15:10;;;;;;;2.55;1.40;;;12.70;82.30;;;;;;5011836;28;20038;-82
2024/01/26 12:17:36;;;;;;;3.33;1.20;;;12.70;82.30;;;;;;5010178;28;20026;-86
2024/01/26 12:20:08;;;;;;;3.15;1.35;;;12.60;82.20;;;;;;4984928;28;20098;-86
2024/01/26 12:22:34;;;;;;;2.30;1.30;;;12.60;82.20;;;;;;5025552;28;20021;-91
2024/01/26 12:25:07;;;;;;;4.50;1.30;;;12.70;82.20;;;;;;5004376;28;20074;-93
2024/01/26 12:27:34;;;;;;;2.25;1.13;;;12.60;82.10;;;;;;5005217;28;20541;-83
2024/01/26 12:30:00;;;;;;;4.88;1.60;;;12.70;82.10;;;;;;4989233;28;20027;-78
2024/01/26 12:32:25;;;;;;;2.55;1.30;;;12.70;82.10;;;;;;5010355;28;20048;-83
2024/01/26 12:34:51;;;;;;;3.13;1.50;;;12.70;82.10;;;;;;5012834;28;20026;-84
2024/01/26 12:37:17;;;;;;;3.08;1.27;;;12.60;82.00;;;;;;5006152;28;20021;-84
2024/01/26 12:39:43;;;;;;;3.03;1.45;;;12.60;82.00;;;;;;5003963;28;20030;-77
2024/01/26 12:42:09;;;;;;;6.07;1.77;;;12.60;82.00;;;;;;4988395;28;20025;-83
2024/01/26 12:44:36;;;;;;;4.65;1.50;;;12.60;81.90;;;;;;5000817;28;20022;-83